Evansville Dress Regional Ai, Indiana
Current Conditions -  °F | °C
As of 9:54 PM on Thursday 18 Dec 2014 (Local Time) from KEVV Reporting Station
Overcast Overcast  
Wind Chill: 33°   Ceiling: 4700
Heat Index: 33°   Visibility: 7mi
Dew Point: 25°   Wind: 3mph
Humidity: 72%   Direction: 10°N
Pressure: 30.29"   Gusts: NA
Location:  38.0153°N, 87.5343°W
Report Text: KEVV 190354Z 01003KT 7SM BKN047 OVC075 01/M04 A3029 RMK AO2 SLP262 T00061039
Loading
Personal Weather Stations






























Interactive Weather Map New forecast layout! Learn more

10-Day Weather Forecast

Advertisements
Track Severe Weather on mobile